Date,TemperatureHighF,TemperatureAvgF,TemperatureLowF,DewpointHighF,DewpointAvgF,DewpointLowF,HumidityHigh,HumidityAvg,HumidityLow,PressureMaxIn,PressureMinIn,WindSpeedMaxMPH,WindSpeedAvgMPH,GustSpeedMaxMPH,PrecipitationSumIn
2014-1-1,66,52,44,18,13,8,31,21,13,0.00,40.00,5,2,13,0.00
2014-1-2,64,51,45,22,20,16,39,29,19,0.00,40.00,5,2,11,0.00
2014-1-3,60,49,42,21,19,16,40,30,20,0.00,40.00,2,1,7,0.00
2014-1-4,65,49,42,20,15,-100,37,27,18,0.00,40.00,6,2,13,0.00
2014-1-5,62,48,41,4,-3,-8,19,12,7,0.00,40.00,6,3,14,0.00
2014-1-6,55,46,40,4,-1,-6,17,14,10,0.00,40.00,6,2,12,0.00
2014-1-7,57,46,41,18,10,3,37,23,15,0.00,40.00,5,2,12,0.00
2014-1-8,57,44,36,23,17,14,52,35,21,0.00,40.00,6,3,13,0.00
2014-1-9,43,36,32,26,24,20,76,61,50,0.00,40.00,5,2,10,0.00
2014-1-10,54,46,34,31,25,20,73,45,29,0.00,40.00,4,2,7,0.00
2014-1-11,64,48,42,30,22,-100,53,38,20,0.00,40.00,13,6,34,0.00
2014-1-12,60,43,34,34,23,7,89,49,22,0.00,40.00,17,5,37,0.00
2014-1-13,65,50,41,11,8,1,23,18,12,0.00,40.00,7,3,19,0.00
2014-1-14,64,56,50,6,2,-3,13,11,9,0.00,40.00,8,5,19,0.00
2014-1-15,68,58,51,3,0,-5,13,9,6,0.00,40.00,5,2,11,0.00
2014-1-16,65,56,51,5,-4,-13,14,9,5,0.00,40.00,7,4,21,0.00
2014-1-17,70,56,47,2,-1,-6,12,10,6,0.00,40.00,4,2,11,0.00
2014-1-18,72,55,46,3,-3,-100,13,9,6,0.00,40.00,5,2,11,0.00
2014-1-19,70,54,47,6,2,-2,15,12,8,0.00,40.00,5,2,9,0.00
2014-1-20,68,53,44,7,4,2,20,14,9,0.00,40.00,6,2,14,0.00
2014-1-21,65,53,47,6,3,0,15,13,9,0.00,40.00,3,1,8,0.00
2014-1-22,64,52,44,6,3,0,18,14,8,0.00,40.00,4,1,13,0.00
2014-1-23,59,48,43,11,5,-2,25,17,12,0.00,40.00,6,3,19,0.00
2014-1-24,58,48,42,14,12,10,26,23,16,0.00,40.00,4,3,16,0.00
2014-1-25,65,52,45,14,10,-100,25,20,12,0.00,40.00,4,2,12,0.00
2014-1-26,57,47,41,15,13,10,34,25,18,0.00,40.00,2,1,7,0.00
2014-1-27,57,46,37,21,17,14,48,33,21,0.00,40.00,4,2,8,0.00
2014-1-28,59,48,38,23,19,13,47,34,17,0.00,40.00,5,2,9,0.00
2014-1-29,68,52,39,34,27,21,52,38,26,0.00,40.00,12,4,28,0.00
2014-1-30,51,43,36,41,35,23,95,78,35,0.00,40.00,16,9,34,0.15
2014-1-31,41,33,29,33,28,23,98,81,64,0.00,40.00,13,6,30,0.09
2014-2-1,45,31,25,25,19,-100,90,68,30,0.00,40.00,3,1,9,0.06
2014-2-2,48,31,26,27,23,16,90,74,29,0.00,40.00,5,1,15,0.00
2014-2-3,43,31,25,28,25,22,94,78,53,0.00,40.00,5,2,16,0.00
2014-2-4,43,33,27,27,26,24,97,78,50,0.00,40.00,4,2,10,0.01
2014-2-5,43,33,26,28,26,25,97,77,48,0.00,40.00,4,2,11,0.01
2014-2-6,46,34,29,35,31,24,99,87,58,0.00,40.00,14,5,25,0.13
2014-2-7,48,39,32,35,31,28,94,76,54,0.00,40.00,23,11,46,0.14
2014-2-8,57,44,37,41,36,31,97,75,48,0.00,40.00,18,9,47,0.01
2014-2-9,62,47,40,41,35,27,91,65,29,0.00,40.00,14,9,32,0.00
2014-2-10,60,47,39,38,36,33,90,68,39,0.00,40.00,11,4,29,0.00
2014-2-11,59,46,35,38,33,20,99,67,33,0.00,40.00,5,2,9,0.00
2014-2-12,69,54,42,29,22,12,55,31,19,0.00,40.00,7,3,20,0.00
2014-2-13,70,57,46,28,18,11,41,23,11,0.00,40.00,12,5,28,0.00
2014-2-14,72,57,46,26,20,10,44,26,14,0.00,40.00,8,4,22,0.00
2014-2-15,68,57,51,16,8,-100,24,14,11,0.00,40.00,13,7,28,0.00
2014-2-16,68,54,46,35,21,7,60,30,16,0.00,40.00,14,8,31,0.00
2014-2-17,69,53,39,32,20,12,71,31,12,0.00,40.00,11,4,21,0.00
2014-2-18,63,47,35,35,27,14,94,52,21,0.00,40.00,4,2,9,0.00
2014-2-19,68,49,36,33,28,19,81,50,17,0.00,40.00,10,4,25,0.00
2014-2-20,62,48,35,33,21,14,90,39,17,0.00,40.00,4,2,11,0.00
2014-2-21,68,50,42,28,19,11,57,32,12,0.00,40.00,5,2,15,0.00
2014-2-22,66,49,39,28,20,-100,61,37,13,0.00,40.00,5,2,11,0.00
2014-2-23,69,52,40,28,24,18,58,36,17,0.00,40.00,6,2,14,0.00
2014-2-24,70,54,42,28,21,12,54,29,14,0.00,40.00,10,2,14,0.00
2014-2-25,68,55,45,29,20,15,49,27,14,0.00,40.00,9,3,17,0.00
2014-2-26,58,47,41,43,34,27,94,61,32,0.00,40.00,7,2,20,0.06
2014-2-27,52,44,36,41,30,8,95,64,21,0.00,40.00,14,7,37,0.51
2014-2-28,49,38,33,42,35,-1,99,91,12,0.00,40.00,20,5,160,1.45
2014-3-1,43,36,32,37,32,-100,98,88,79,0.00,40.00,0,0,0,0.13
2014-3-2,50,39,32,39,35,30,97,85,65,0.00,40.00,0,0,0,0.02
2014-3-3,58,44,35,42,37,33,98,77,54,0.00,40.00,3,0,17,0.01
2014-3-4,55,45,36,44,39,35,97,80,63,0.00,40.00,5,2,131,0.00
2014-3-5,70,53,42,39,32,25,87,48,23,0.00,40.00,4,2,105,0.00
2014-3-6,61,50,43,40,35,25,75,57,40,0.00,40.00,19,10,42,0.00
2014-3-7,61,48,35,31,22,7,79,46,12,0.00,40.00,13,4,168,0.00
2014-3-8,68,52,44,18,12,-100,30,22,12,0.00,40.00,3,1,8,0.00
2014-3-9,69,56,48,20,12,8,29,18,10,0.00,40.00,4,2,12,0.00
2014-3-10,63,52,42,35,25,15,76,38,21,0.00,40.00,11,6,35,0.00
2014-3-11,60,48,37,36,23,10,93,44,21,0.00,40.00,6,3,15,0.00
2014-3-12,55,45,36,14,11,8,32,25,19,0.00,40.00,10,6,26,0.00
2014-3-13,59,49,40,20,11,1,40,23,11,0.00,40.00,7,2,22,0.00
2014-3-14,67,50,38,22,20,16,49,32,16,0.00,40.00,7,3,14,0.00
2014-3-15,73,54,42,29,22,-100,49,32,14,0.00,40.00,4,2,12,0.00
2014-3-16,78,62,48,32,20,-100,49,24,9,0.00,40.00,8,3,25,0.00
2014-3-17,62,53,47,27,21,9,46,29,16,0.00,40.00,20,12,42,0.00
2014-3-18,60,48,36,31,14,3,72,31,13,0.00,40.00,5,3,14,0.00
2014-3-19,65,49,40,13,4,2,25,17,10,0.00,40.00,4,2,12,0.00
2014-3-20,68,50,42,20,16,-100,35,27,13,0.00,40.00,5,2,14,0.00
2014-3-21,69,52,41,32,25,-100,56,38,18,0.00,40.00,13,4,24,0.00
2014-3-22,70,51,41,33,26,-100,64,42,18,0.00,40.00,7,3,18,0.00
2014-3-23,72,54,40,28,20,5,60,33,8,0.00,40.00,4,2,12,0.00
2014-3-24,72,65,51,21,8,1,26,12,7,0.00,40.00,5,3,18,0.00
2014-3-25,72,56,44,28,20,14,48,27,12,0.00,40.00,12,4,29,0.00
2014-3-26,44,38,34,36,33,28,95,84,54,0.00,40.00,15,9,41,0.13
2014-3-27,52,39,33,34,31,28,90,76,49,0.00,40.00,14,7,35,0.01
2014-3-28,67,46,32,34,31,25,93,62,25,0.00,40.00,5,2,14,0.00
2014-3-29,66,49,41,30,25,-100,62,43,26,0.00,40.00,13,6,33,0.00
2014-3-30,54,40,32,36,31,26,95,71,36,0.00,40.00,15,8,37,0.07
2014-3-31,54,41,31,31,25,14,97,61,22,0.00,40.00,13,4,29,0.01
2014-4-1,47,34,27,32,26,-100,99,80,54,0.00,40.00,13,7,34,0.22
2014-4-2,49,35,27,34,28,25,96,76,53,0.00,40.00,8,4,22,0.02
2014-4-3,59,44,29,30,27,22,98,59,26,0.00,40.00,5,2,15,0.01
2014-4-4,56,43,35,32,28,20,83,59,24,0.00,40.00,10,3,23,0.01
2014-4-5,61,42,32,34,29,-100,94,67,31,0.00,40.00,6,3,20,0.00
2014-4-6,70,51,33,36,32,26,98,56,21,0.00,40.00,4,2,11,0.00
2014-4-7,77,61,47,35,21,17,64,24,11,0.00,40.00,5,2,16,0.00
2014-4-8,79,65,52,29,23,13,35,23,10,0.00,40.00,9,3,23,0.00
2014-4-9,78,61,51,28,20,5,35,23,6,0.00,40.00,11,4,24,0.00
2014-4-10,82,63,52,22,19,12,31,19,8,0.00,40.00,6,3,14,0.00
2014-4-11,77,62,51,32,26,19,44,28,13,0.00,40.00,9,3,23,0.00
2014-4-12,75,56,46,42,32,-100,70,44,24,0.00,40.00,8,4,24,0.00
2014-4-13,75,61,45,41,36,34,69,43,23,0.00,40.00,5,3,18,0.00
2014-4-14,71,55,48,36,13,3,61,23,9,0.00,40.00,4,2,14,0.00
2014-4-15,76,58,50,35,31,25,52,38,21,0.00,40.00,8,4,22,0.00
2014-4-16,79,62,48,33,27,22,46,29,13,0.00,40.00,5,3,13,0.00
2014-4-17,78,64,49,36,31,23,52,32,14,0.00,40.00,7,3,24,0.00
2014-4-18,74,58,50,42,38,30,73,52,21,0.00,40.00,4,2,15,0.00
2014-4-19,77,56,46,44,41,-100,86,60,26,0.00,40.00,10,4,26,0.00
2014-4-20,80,59,47,42,37,30,71,47,17,0.00,40.00,5,2,14,0.00
2014-4-21,83,63,47,34,22,16,58,23,8,0.00,40.00,10,4,27,0.00
2014-4-22,54,50,40,34,26,17,60,40,24,0.00,40.00,18,10,54,0.00
2014-4-23,69,51,34,29,21,12,63,34,12,0.00,40.00,5,3,13,0.00
2014-4-24,76,56,38,35,30,20,76,42,12,0.00,40.00,5,3,18,0.00
2014-4-25,55,44,32,37,34,31,96,69,47,0.00,40.00,19,8,40,0.29
2014-4-26,47,34,29,37,30,27,97,86,66,0.00,40.00,12,7,28,0.31
2014-4-28,71,54,48,38,36,27,69,54,19,0.00,40.00,5,2,10,0.00
2014-4-29,75,61,50,35,13,6,57,17,9,0.00,40.00,8,4,21,0.00
2014-4-30,75,62,53,14,6,0,18,11,6,0.00,40.00,8,4,23,0.00
2014-5-1,82,62,53,33,14,2,37,17,7,0.00,40.00,7,4,17,0.00
2014-5-2,82,66,54,38,29,16,50,28,11,0.00,40.00,10,4,25,0.00
2014-5-3,82,64,53,31,19,-100,38,20,8,0.00,40.00,9,5,25,0.00
2014-5-4,80,60,50,39,25,10,56,31,9,0.00,40.00,13,6,29,0.00
2014-5-5,70,54,46,42,36,31,75,52,31,0.00,40.00,14,6,30,0.00
2014-5-6,52,43,36,36,32,28,87,66,45,0.00,40.00,13,7,28,0.00
2014-5-13,77,66,59,16,10,5,12,11,9,0.00,40.00,4,2,17,0.00
2014-5-14,82,67,54,15,8,2,13,10,7,0.00,40.00,5,3,15,0.00
2014-5-15,88,70,57,30,18,9,23,15,7,0.00,40.00,7,3,18,0.00
2014-5-16,88,71,62,31,27,21,31,21,9,0.00,40.00,14,6,36,0.00
2014-5-17,85,68,60,27,20,-100,25,17,7,0.00,40.00,9,4,25,0.00
2014-5-18,77,61,52,40,26,15,56,28,15,0.00,40.00,18,8,36,0.00
2014-5-19,74,57,48,34,25,-100,53,33,15,0.00,40.00,14,5,37,0.00
2014-5-20,59,47,39,39,32,-100,90,58,35,0.00,40.00,11,6,33,0.00
2014-5-21,59,46,39,50,37,31,93,73,42,0.00,40.00,6,3,18,0.06
2014-5-22,67,51,42,45,36,-100,88,61,27,0.00,40.00,5,2,22,0.05
2014-5-23,80,60,45,40,37,29,76,47,19,0.00,40.00,7,3,17,0.01
2014-5-24,84,66,54,44,39,-100,64,42,20,0.00,40.00,6,3,19,0.00
2014-5-25,92,71,56,46,40,25,65,38,12,0.00,40.00,6,3,20,0.00
2014-5-26,91,74,59,47,42,38,61,36,16,0.00,40.00,9,4,21,0.00
2014-5-27,94,73,59,42,33,25,47,27,11,0.00,40.00,8,4,24,0.00
2014-5-28,88,67,57,37,29,18,47,26,10,0.00,40.00,8,4,19,0.00
2014-5-29,88,64,48,35,24,13,49,26,8,0.00,40.00,5,2,19,0.00
2014-5-30,88,67,52,22,14,2,25,14,5,0.00,40.00,7,3,19,0.00
2014-5-31,82,66,55,22,16,-100,27,16,7,0.00,40.00,13,5,27,0.00
2014-6-1,87,64,52,25,20,12,32,21,6,0.00,40.00,5,3,20,0.00
2014-6-2,85,74,59,23,15,5,22,12,6,0.00,40.00,6,5,21,0.00
2014-6-3,88,70,52,30,18,8,25,15,6,0.00,40.00,7,4,18,0.00
2014-6-4,90,69,54,35,28,21,38,23,10,0.00,40.00,7,3,16,0.00
2014-6-5,94,73,56,39,29,16,42,23,6,0.00,40.00,8,3,19,0.00
2014-6-6,93,73,58,37,32,26,35,24,11,0.00,40.00,8,4,23,0.00
2014-6-7,96,74,58,40,30,-100,34,22,9,0.00,40.00,8,4,23,0.00
2014-6-8,98,78,61,43,33,21,43,24,7,0.00,40.00,6,3,17,0.00
2014-6-9,97,81,67,43,30,17,39,19,6,0.00,40.00,12,4,30,0.00
2014-6-10,96,81,66,41,30,22,30,18,7,0.00,40.00,13,4,31,0.00
2014-6-11,91,74,59,46,41,34,58,33,14,0.00,40.00,7,4,23,0.00
2014-6-12,89,72,60,47,40,31,59,35,13,0.00,40.00,11,5,28,0.00
2014-6-13,79,67,58,47,33,22,56,32,12,0.00,40.00,20,9,43,0.00
2014-6-14,84,66,52,28,21,-100,39,21,7,0.00,40.00,11,4,28,0.00
2014-6-15,79,65,54,35,24,14,38,22,12,0.00,40.00,13,6,36,0.00
2014-6-16,76,63,55,36,30,20,43,31,14,0.00,40.00,12,6,39,0.00
2014-6-17,75,61,49,33,28,20,50,32,14,0.00,40.00,11,6,41,0.00
2014-6-18,83,64,47,35,25,20,46,25,11,0.00,40.00,5,3,20,0.00
2014-6-19,88,71,53,35,24,16,33,19,7,0.00,40.00,5,3,17,0.00
2014-6-20,91,73,59,34,27,20,32,20,9,0.00,40.00,14,4,31,0.00
2014-6-21,94,74,60,34,23,-100,30,17,8,0.00,40.00,8,4,22,0.00
2014-6-22,95,74,60,26,20,11,23,14,8,0.00,40.00,8,4,22,0.00
2014-6-23,95,72,60,36,24,17,33,18,7,0.00,40.00,5,3,19,0.00
2014-6-24,93,72,58,39,34,27,40,26,13,0.00,40.00,14,6,31,0.00
2014-6-25,91,73,61,45,35,29,41,27,13,0.00,40.00,18,6,36,0.00
2014-6-26,76,65,56,50,42,36,68,45,29,0.00,40.00,21,12,44,0.00
2014-6-27,87,66,51,49,42,33,71,47,18,0.00,40.00,7,3,24,0.00
2014-6-28,97,72,57,46,39,-100,60,37,12,0.00,40.00,8,3,19,0.00
2014-6-29,100,79,59,48,40,27,61,30,9,0.00,40.00,5,3,20,0.00
2014-6-30,101,82,63,43,34,24,39,22,7,0.00,40.00,5,3,16,0.00
2014-7-1,102,84,69,44,36,20,37,21,7,0.00,40.00,8,3,19,0.00
2014-7-2,99,81,65,44,35,27,42,22,10,0.00,40.00,8,3,21,0.00
2014-7-3,99,78,65,42,35,22,43,24,9,0.00,40.00,8,3,18,0.00
2014-7-4,96,80,66,45,37,26,36,23,13,0.00,40.00,8,4,21,0.00
2014-7-5,100,80,65,52,33,-100,31,20,9,0.00,40.00,5,3,14,0.00
2014-7-6,91,75,67,71,42,37,53,31,18,0.00,40.00,5,2,15,0.04
2014-7-7,95,78,66,46,37,30,39,25,12,0.00,40.00,5,2,17,0.02
2014-7-8,96,81,67,42,30,19,22,16,10,0.00,40.00,9,3,19,0.00
2014-7-9,96,80,67,36,31,25,25,17,11,0.00,40.00,7,3,20,0.00
2014-7-10,95,80,66,41,32,26,33,19,9,0.00,40.00,7,3,24,0.00
2014-7-11,90,74,60,46,37,31,47,29,13,0.00,40.00,7,3,18,0.00
2014-7-12,95,78,58,49,36,25,59,28,10,0.00,40.00,6,3,16,0.00
2014-7-13,103,82,64,49,42,34,53,29,10,0.00,40.00,4,2,14,0.00
2014-7-14,94,82,71,52,46,35,42,30,18,0.00,40.00,7,3,15,0.00
2014-7-15,94,80,69,55,50,42,55,38,18,0.00,40.00,8,3,19,0.00
2014-7-16,97,78,65,54,49,36,65,40,13,0.00,40.00,6,3,18,0.00
2014-7-17,97,76,60,54,45,26,69,42,9,0.00,40.00,6,2,17,0.00
2014-7-18,96,76,57,54,42,25,73,40,8,0.00,40.00,8,2,15,0.00
2014-7-19,90,74,63,53,44,27,64,38,12,0.00,40.00,6,2,16,0.00
2014-7-20,91,74,62,54,46,34,62,40,14,0.00,40.00,8,2,24,0.00
2014-7-21,88,72,58,55,49,40,82,49,22,0.00,40.00,6,3,16,0.00
2014-7-22,93,75,60,52,44,33,69,39,14,0.00,40.00,7,3,18,0.00
2014-7-23,97,75,60,52,40,11,58,36,5,0.00,40.00,7,2,17,0.00
2014-7-24,97,76,57,54,38,16,85,36,6,0.00,40.00,7,3,20,0.00
2014-7-25,99,80,64,41,31,17,41,20,6,0.00,40.00,9,3,21,0.00
2014-7-26,95,80,65,41,33,27,34,20,9,0.00,40.00,8,4,20,0.00
2014-7-27,100,81,68,46,38,32,32,23,12,0.00,40.00,9,3,21,0.00
2014-7-28,82,71,62,60,47,39,82,45,30,0.00,40.00,11,3,23,0.07
2014-7-29,92,77,64,45,38,29,37,25,14,0.00,40.00,5,3,17,0.02
2014-7-30,94,79,68,52,43,35,42,29,14,0.00,40.00,7,2,20,0.00
2014-7-31,95,78,66,49,43,38,49,31,17,0.00,40.00,7,2,22,0.00
2014-8-1,99,82,68,46,40,31,44,26,12,0.00,40.00,7,3,19,0.00
2014-8-2,88,78,70,55,41,33,37,27,17,0.00,40.00,9,4,21,0.00
2014-8-3,73,63,57,63,53,33,98,75,23,0.00,40.00,3,2,16,0.24
2014-8-4,84,67,57,56,46,36,93,53,19,0.00,40.00,11,4,27,0.01
2014-8-5,90,72,59,48,42,34,57,37,17,0.00,40.00,5,3,20,0.00
2014-8-6,89,68,57,52,46,35,73,49,16,0.00,40.00,6,3,14,0.00
2014-8-7,90,80,60,54,35,20,55,25,8,0.00,40.00,5,3,16,0.00
2014-8-8,94,76,61,51,42,28,64,34,11,0.00,40.00,7,3,15,0.00
2014-8-9,93,78,64,45,36,29,46,25,11,0.00,40.00,9,3,18,0.00
2014-8-10,93,78,64,41,34,23,38,23,9,0.00,40.00,8,4,22,0.00
2014-8-11,93,78,66,53,43,35,53,31,17,0.00,40.00,5,2,20,0.00
2014-8-12,91,76,64,53,49,44,62,42,23,0.00,40.00,8,3,23,0.00
2014-8-13,89,72,61,50,42,28,56,37,12,0.00,40.00,5,2,20,0.00
2014-8-14,90,72,57,48,38,21,63,37,8,0.00,40.00,5,3,20,0.00
2014-8-15,95,77,61,44,26,8,47,20,5,0.00,40.00,7,3,17,0.00
2014-8-16,94,76,62,28,22,15,24,15,7,0.00,40.00,7,3,17,0.00
2014-8-17,95,78,62,38,27,19,27,16,9,0.00,40.00,7,4,20,0.00
2014-8-18,92,74,64,35,28,15,33,20,6,0.00,40.00,5,3,20,0.00
2014-8-19,88,72,59,42,27,18,47,21,9,0.00,40.00,8,4,19,0.00
2014-8-20,85,70,56,43,36,26,61,34,12,0.00,40.00,7,3,16,0.00
2014-8-21,85,70,57,49,40,31,55,37,16,0.00,40.00,8,3,20,0.00
2014-8-22,87,72,59,48,41,32,62,38,14,0.00,40.00,12,4,29,0.00
2014-8-23,90,69,59,45,38,30,53,34,13,0.00,40.00,10,4,26,0.00
2014-8-24,87,72,56,42,36,24,53,31,12,0.00,40.00,10,3,22,0.00
2014-8-25,88,69,57,42,30,7,47,29,5,0.00,40.00,8,4,21,0.00
2014-8-26,87,69,56,39,32,21,49,29,10,0.00,40.00,6,3,20,0.00
2014-8-27,91,73,57,40,32,24,47,26,9,0.00,40.00,4,3,16,0.00
2014-8-28,97,75,61,34,27,20,32,19,7,0.00,40.00,7,3,18,0.00
2014-8-29,97,78,63,39,26,13,33,17,6,0.00,40.00,6,3,19,0.00
2014-8-30,94,74,61,41,33,23,44,24,12,0.00,40.00,16,7,35,0.00
2014-8-31,94,74,65,35,28,19,31,20,9,0.00,40.00,6,3,19,0.00
2014-9-1,95,73,60,40,32,21,38,25,8,0.00,40.00,5,2,12,0.00
2014-9-2,95,74,63,43,37,27,41,28,10,0.00,40.00,5,2,17,0.00
2014-9-3,94,73,62,43,37,31,46,30,11,0.00,40.00,7,3,17,0.00
2014-9-4,92,74,60,40,32,23,43,24,9,0.00,40.00,6,3,17,0.00
2014-9-5,89,76,59,37,25,17,40,18,7,0.00,40.00,13,4,21,0.00
2014-9-6,88,75,65,45,36,28,48,25,15,0.00,40.00,6,3,24,0.00
2014-9-7,89,74,65,53,38,27,48,28,17,0.00,40.00,11,3,27,0.00
2014-9-8,82,69,64,55,41,30,53,36,20,0.00,40.00,10,3,27,0.03
2014-9-9,86,68,55,37,28,22,44,24,10,0.00,40.00,7,3,18,0.03
2014-9-10,89,75,59,29,24,13,32,16,10,0.00,40.00,5,3,18,0.00
2014-9-11,92,74,61,33,27,20,27,18,9,0.00,40.00,5,2,14,0.00
2014-9-12,92,76,64,36,30,24,29,19,10,0.00,40.00,6,2,14,0.00
2014-9-13,90,74,66,40,32,23,29,21,12,0.00,40.00,6,2,16,0.00
2014-9-14,89,75,65,48,38,30,37,27,18,0.00,40.00,4,2,15,0.00
2014-9-15,96,78,67,48,42,35,42,30,14,0.00,40.00,6,3,17,0.00
2014-9-16,91,75,65,48,44,37,48,35,20,0.00,40.00,5,2,15,0.00
2014-9-17,89,74,64,47,42,37,51,34,19,0.00,40.00,6,2,22,0.00
2014-9-18,81,68,59,50,42,33,69,41,24,0.00,40.00,9,4,27,0.00
2014-9-19,82,67,51,51,40,26,92,45,13,0.00,40.00,8,3,21,0.00
2014-9-20,85,69,58,50,39,29,55,35,18,0.00,40.00,7,3,18,0.00
2014-9-21,84,68,60,48,44,35,63,45,20,0.00,40.00,4,2,17,0.00
2014-9-22,87,68,55,48,40,32,70,40,14,0.00,40.00,8,2,14,0.00
2014-9-23,88,69,59,43,32,17,52,29,8,0.00,40.00,10,2,16,0.00
2014-9-24,90,74,60,38,26,16,38,19,8,0.00,40.00,9,3,24,0.00
2014-9-25,85,70,59,53,42,32,63,37,26,0.00,40.00,11,4,26,0.00
2014-9-26,79,59,51,51,44,28,95,64,17,0.00,40.00,8,4,20,0.00
2014-9-27,63,51,44,43,38,31,80,63,38,0.00,40.00,14,7,30,0.00
2014-9-28,68,52,42,43,38,30,89,62,31,0.00,40.00,12,5,24,0.00
2014-9-29,72,56,44,45,38,30,82,56,29,0.00,40.00,4,2,13,0.00
2014-9-30,80,61,49,43,38,28,73,47,16,0.00,40.00,9,3,21,0.00
2014-10-1,78,65,49,45,30,18,83,33,14,0.00,40.00,6,3,20,0.00
2014-10-2,78,63,54,18,13,6,21,15,6,0.00,40.00,5,2,16,0.00
2014-10-3,85,71,60,17,10,5,13,10,6,0.00,40.00,6,2,15,0.00
2014-10-4,87,70,62,23,14,8,18,11,7,0.00,40.00,4,2,13,0.00
2014-10-5,88,72,62,21,17,11,18,13,7,0.00,40.00,4,2,12,0.00
2014-10-6,89,72,61,27,19,10,19,14,8,0.00,40.00,4,2,12,0.00
2014-10-7,88,69,57,33,23,14,30,19,9,0.00,40.00,4,2,11,0.00
2014-10-8,85,67,57,37,31,23,38,28,14,0.00,40.00,5,2,15,0.00
2014-10-9,82,65,55,38,30,20,52,30,14,0.00,40.00,10,4,25,0.00
2014-10-10,78,65,53,38,28,22,46,27,15,0.00,40.00,6,3,19,0.00
2014-10-11,84,65,53,37,30,21,50,29,11,0.00,40.00,6,2,21,0.00
2014-10-12,81,67,52,38,18,2,52,22,5,0.00,40.00,6,3,19,0.00
2014-10-13,79,66,57,14,7,1,12,10,7,0.00,40.00,5,3,14,0.00
2014-10-14,79,65,56,22,11,1,17,12,8,0.00,40.00,11,4,23,0.00
2014-10-15,73,59,48,43,28,12,78,34,14,0.00,40.00,6,3,19,0.00
2014-10-16,73,59,42,42,33,23,92,42,21,0.00,40.00,5,2,10,0.00
2014-10-17,76,57,48,39,27,17,62,35,12,0.00,40.00,4,2,10,0.00
2014-10-18,74,60,44,39,32,28,80,37,21,0.00,40.00,7,3,16,0.00
2014-10-19,80,64,53,40,35,28,51,36,17,0.00,40.00,6,2,12,0.00
2014-10-20,79,62,50,47,37,28,76,42,19,0.00,40.00,5,2,16,0.00
2014-10-21,64,53,43,45,41,37,99,69,37,0.00,40.00,6,3,16,0.00
2014-10-22,78,65,43,40,26,19,88,26,13,0.00,40.00,5,2,11,0.00
2014-10-23,83,64,54,33,26,18,42,26,11,0.00,40.00,4,2,13,0.00
2014-10-24,82,65,58,26,19,11,25,17,9,0.00,40.00,14,4,29,0.00
2014-10-25,73,61,50,37,27,15,61,30,15,0.00,40.00,9,4,28,0.00
2014-10-26,65,50,42,44,40,36,92,69,38,0.00,40.00,5,3,14,0.00
2014-10-27,71,57,39,41,27,20,97,38,16,0.00,40.00,3,1,11,0.00
2014-10-28,73,58,48,28,22,14,46,27,13,0.00,40.00,4,2,13,0.00
2014-10-29,79,61,53,25,17,10,29,19,9,0.00,40.00,4,2,13,0.00
2014-10-30,77,63,56,22,16,10,23,16,10,0.00,40.00,6,3,14,0.00
2014-10-31,68,56,45,46,24,4,79,31,13,0.00,40.00,14,4,27,0.00
2014-11-1,49,38,35,39,34,32,96,87,67,0.00,40.00,13,6,31,0.23
2014-11-2,51,38,33,36,33,28,99,83,50,0.00,40.00,5,1,16,0.03
2014-11-3,58,43,32,34,20,9,99,47,16,0.00,40.00,4,2,8,0.00
2014-11-4,67,52,44,16,9,2,23,18,11,0.00,40.00,5,2,11,0.00
2014-11-5,73,59,52,34,24,13,35,27,20,0.00,40.00,4,2,13,0.00
2014-11-6,73,61,52,31,28,22,39,29,18,0.00,40.00,5,2,14,0.00
2014-11-7,75,60,50,32,26,22,40,28,15,0.00,40.00,4,2,12,0.00
2014-11-8,78,64,59,27,22,17,25,20,13,0.00,40.00,4,2,12,0.00
2014-11-9,78,61,55,32,24,15,35,25,11,0.00,40.00,5,2,17,0.00
2014-11-10,76,58,50,35,28,16,46,33,14,0.00,40.00,6,2,13,0.00
2014-11-11,58,51,44,42,32,28,83,49,31,0.00,40.00,7,4,15,0.00
2014-11-12,61,48,38,40,34,28,98,62,37,0.00,40.00,5,3,11,0.00
2014-11-13,61,50,40,46,34,13,82,56,28,0.00,40.00,19,9,42,0.00
2014-11-14,58,46,39,43,37,31,94,74,38,0.00,40.00,6,3,13,0.00
2014-11-15,56,42,37,38,34,29,97,74,39,0.00,40.00,11,4,29,0.00
2014-11-16,57,43,35,34,2,-15,88,28,6,0.00,40.00,6,3,18,0.00
2014-11-17,58,47,40,1,-6,-14,15,11,7,0.00,40.00,5,2,15,0.00
2014-11-18,61,49,43,5,1,-3,17,14,9,0.00,40.00,6,2,11,0.00
2014-11-19,60,48,42,38,24,-3,77,45,14,0.00,40.00,9,3,23,0.06
2014-11-20,54,44,37,37,33,26,84,69,40,0.00,40.00,11,3,24,0.06
2014-11-21,52,41,34,45,35,30,98,81,53,0.00,40.00,7,2,19,0.00
2014-11-22,60,44,34,48,37,28,99,76,46,0.00,40.00,18,8,38,0.01
2014-11-23,60,46,36,41,27,7,95,56,14,0.00,40.00,7,2,19,0.01
2014-11-24,60,46,37,20,13,7,48,28,13,0.00,40.00,4,2,12,0.00
2014-11-25,62,50,41,13,6,-4,23,17,11,0.00,40.00,4,1,8,0.00
2014-11-26,75,60,50,18,14,7,22,17,11,0.00,40.00,5,2,9,0.00
2014-11-27,78,61,54,20,13,7,22,15,9,0.00,40.00,3,2,8,0.00
2014-11-28,68,56,49,14,8,-4,21,15,9,0.00,40.00,9,4,24,0.00
2014-11-29,64,52,46,17,8,-6,21,16,9,0.00,40.00,14,4,30,0.00
2014-11-30,57,47,44,39,24,9,82,45,21,0.00,40.00,11,4,26,0.00
2014-12-1,57,45,39,40,37,32,91,75,50,0.00,40.00,6,2,16,0.00
2014-12-2,44,42,40,41,39,34,99,91,71,0.00,40.00,4,2,14,1.28
2014-12-3,53,45,40,45,42,38,99,88,71,0.00,40.00,6,2,17,0.68
2014-12-4,57,45,41,43,41,39,100,88,59,0.00,40.00,4,2,11,0.00
2014-12-5,49,44,40,44,42,39,100,92,80,0.00,40.00,3,2,11,0.01
2014-12-6,59,45,39,41,38,37,98,78,50,0.00,40.00,3,2,9,0.01
2014-12-7,57,47,41,39,35,30,77,64,46,0.00,40.00,5,2,11,0.00
2014-12-8,60,49,42,38,33,26,69,54,37,0.00,40.00,4,2,13,0.00
2014-12-9,65,50,42,33,28,24,66,45,28,0.00,40.00,3,1,7,0.00
2014-12-10,64,52,46,32,24,20,45,33,21,0.00,40.00,4,2,9,0.00
2014-12-11,58,49,42,38,27,19,84,45,28,0.00,40.00,11,5,25,0.00
2014-12-12,43,36,32,40,35,32,100,97,80,0.00,40.00,9,4,25,0.67
2014-12-13,40,34,31,35,33,30,100,94,77,0.00,40.00,8,2,21,0.06
2014-12-14,48,36,30,33,28,21,97,74,55,0.00,40.00,4,2,10,0.01
2014-12-15,41,36,33,33,29,26,100,76,59,0.00,40.00,5,2,14,0.00
2014-12-16,42,36,32,38,34,32,100,94,84,0.00,40.00,3,1,8,0.13
2014-12-17,40,34,32,36,33,30,100,96,84,0.00,40.00,7,2,19,0.02
2014-12-18,48,36,29,35,32,28,100,86,58,0.00,40.00,3,1,10,0.01
2014-12-19,49,37,32,34,30,23,94,77,53,0.00,40.00,4,2,18,0.00
2014-12-20,45,37,34,40,31,25,100,78,69,0.00,40.00,6,3,20,0.00
2014-12-21,53,42,37,42,38,35,100,87,67,0.00,40.00,6,2,14,0.00